createdAt,value
2023-05-10T05:30:03.297Z,25.00
2023-05-10T05:31:09.123Z,25.00
2023-05-10T05:32:04.291Z,25.00
2023-05-10T05:33:03.138Z,25.00
2023-05-10T05:34:04.484Z,25.00
2023-05-10T05:35:02.874Z,25.00
2023-05-10T05:36:02.755Z,25.00
2023-05-10T05:37:02.667Z,25.00
2023-05-10T05:38:02.600Z,25.00
2023-05-10T05:39:04.087Z,0.00
2023-05-10T05:40:02.310Z,0.00
2023-05-10T05:41:02.184Z,0.00
2023-05-10T05:42:02.072Z,0.00
2023-05-10T05:43:02.009Z,0.00
2023-05-10T05:44:02.548Z,0.00
2023-05-10T05:45:01.834Z,0.00
2023-05-10T05:46:01.674Z,0.00
2023-05-10T05:47:01.573Z,0.00
2023-05-10T05:48:02.077Z,4.30
2023-05-10T05:49:01.387Z,20.06
2023-05-10T05:50:01.292Z,25.00
2023-05-10T05:51:01.213Z,25.00
2023-05-10T05:52:01.104Z,26.37
2023-05-10T05:53:01.099Z,25.75
2023-05-10T05:54:00.905Z,25.00
2023-05-10T05:55:00.837Z,25.99
2023-05-10T05:56:00.751Z,25.00
2023-05-10T05:57:01.523Z,25.00
2023-05-10T05:58:00.558Z,25.00
2023-05-10T05:59:00.472Z,25.00
2023-05-10T06:00:00.426Z,25.00
2023-05-10T06:01:00.273Z,25.30
2023-05-10T06:02:01.025Z,25.00
2023-05-10T06:03:00.324Z,25.68
2023-05-10T06:04:00.070Z,25.24
2023-05-10T06:04:59.917Z,25.00
2023-05-10T06:05:59.796Z,25.00
2023-05-10T06:07:00.509Z,25.55
2023-05-10T06:07:59.609Z,25.72
2023-05-10T06:08:59.622Z,27.52
2023-05-10T06:09:59.412Z,25.00
2023-05-10T06:11:01.003Z,28.07
2023-05-10T06:11:59.272Z,25.24
2023-05-10T06:12:59.184Z,25.00
2023-05-10T06:13:59.497Z,25.81
2023-05-10T06:14:58.948Z,26.79
2023-05-10T06:15:58.869Z,25.00
2023-05-10T06:16:58.815Z,25.47
2023-05-10T06:17:58.734Z,26.97
2023-05-10T06:18:58.557Z,26.67
2023-05-10T06:19:58.485Z,26.22
2023-05-10T06:20:58.373Z,27.38
2023-05-10T06:21:58.252Z,25.90
2023-05-10T06:22:58.173Z,25.73
2023-05-10T06:23:58.102Z,25.00
2023-05-10T06:24:58.012Z,25.00
2023-05-10T06:25:57.928Z,25.00
2023-05-10T06:26:57.851Z,29.59
2023-05-10T06:27:57.756Z,30.36
2023-05-10T06:28:59.540Z,35.03
2023-05-10T06:30:09.206Z,32.54
2023-05-10T06:30:57.451Z,6.31
2023-05-10T06:31:57.351Z,0.00
2023-05-10T06:32:57.305Z,0.00
2023-05-10T06:33:57.189Z,0.00
2023-05-10T06:34:57.151Z,0.00
2023-05-10T06:35:57.142Z,0.00
2023-05-10T06:36:56.983Z,0.00
2023-05-10T06:37:56.911Z,0.00
2023-05-10T06:38:58.536Z,0.00
2023-05-10T06:39:56.814Z,0.00
2023-05-10T06:40:56.773Z,0.00
2023-05-10T06:41:56.625Z,0.00
2023-05-10T06:42:56.556Z,0.00
2023-05-10T06:43:56.753Z,0.00
2023-05-10T06:44:56.291Z,0.00
2023-05-10T06:45:56.209Z,0.00
2023-05-10T06:46:57.047Z,0.00
2023-05-10T06:47:56.569Z,0.00
2023-05-10T06:48:55.812Z,0.00
2023-05-10T06:49:55.695Z,0.00
2023-05-10T06:50:56.409Z,0.00
2023-05-10T06:51:55.464Z,0.00
2023-05-10T06:52:55.334Z,0.00
2023-05-10T06:53:55.237Z,0.00
2023-05-10T06:54:55.138Z,0.00
2023-05-10T06:55:54.958Z,0.00
2023-05-10T06:56:54.845Z,0.00
2023-05-10T06:57:54.737Z,0.00
2023-05-10T06:58:54.643Z,3.03
2023-05-10T06:59:54.503Z,25.00
2023-05-10T07:00:54.463Z,26.04
2023-05-10T07:01:54.268Z,26.48
2023-05-10T07:02:54.140Z,24.82
2023-05-10T07:03:54.030Z,25.00
2023-05-10T07:04:53.921Z,29.20
2023-05-10T07:05:54.516Z,25.00
2023-05-10T07:06:54.009Z,25.00
2023-05-10T07:07:53.506Z,25.00
2023-05-10T07:08:53.388Z,25.00
2023-05-10T07:09:53.957Z,27.00
2023-05-10T07:10:53.166Z,27.26
2023-05-10T07:11:53.030Z,25.65
2023-05-10T07:12:52.984Z,25.00
2023-05-10T07:13:52.774Z,25.00
2023-05-10T07:14:52.658Z,25.20
2023-05-10T07:15:52.550Z,40.03
2023-05-10T07:16:54.950Z,40.95
2023-05-10T07:17:53.199Z,48.21
2023-05-10T07:18:52.336Z,56.99
2023-05-10T07:19:52.576Z,72.19
2023-05-10T07:20:52.119Z,85.17
2023-05-10T07:21:51.979Z,82.15
2023-05-10T07:22:51.888Z,56.10
2023-05-10T07:23:51.839Z,29.63
2023-05-10T07:24:51.703Z,25.00
2023-05-10T07:25:51.601Z,25.23
2023-05-10T07:27:02.544Z,35.27
2023-05-10T07:27:51.375Z,35.84
2023-05-10T07:28:51.279Z,38.67
2023-05-10T07:29:51.150Z,44.56
2023-05-10T07:30:51.105Z,49.59
2023-05-10T07:31:50.973Z,53.58
2023-05-10T07:32:50.805Z,43.70
2023-05-10T07:34:01.603Z,42.89
2023-05-10T07:34:50.522Z,43.11
2023-05-10T07:35:50.441Z,43.02
2023-05-10T07:36:51.083Z,44.73
2023-05-10T07:37:57.156Z,43.03
2023-05-10T07:38:50.025Z,43.17
2023-05-10T07:39:49.911Z,45.14
2023-05-10T07:40:50.455Z,43.72
2023-05-10T07:41:50.566Z,47.25
2023-05-10T07:42:49.556Z,55.86
2023-05-10T07:43:49.707Z,71.27
2023-05-10T07:44:49.404Z,96.19
2023-05-10T07:45:49.212Z,103.55
2023-05-10T07:46:49.071Z,109.74
2023-05-10T07:47:48.998Z,113.58
2023-05-10T07:48:48.896Z,119.79
2023-05-10T07:49:50.538Z,123.19
2023-05-10T07:50:49.514Z,123.39
2023-05-10T07:51:50.511Z,102.81
2023-05-10T07:52:48.739Z,83.62
2023-05-10T07:53:48.675Z,61.22
2023-05-10T07:54:50.492Z,41.61
2023-05-10T07:55:48.389Z,32.96
2023-05-10T07:56:48.367Z,23.78
2023-05-10T07:57:48.146Z,17.41
2023-05-10T07:58:48.021Z,8.15
2023-05-10T07:59:47.897Z,25.00
2023-05-10T08:00:50.553Z,25.00
2023-05-10T08:01:47.694Z,26.05
2023-05-10T08:02:47.700Z,25.27
2023-05-10T08:03:48.176Z,25.32
2023-05-10T08:04:48.448Z,22.75
2023-05-10T08:05:47.357Z,15.81
2023-05-10T08:06:47.318Z,25.56
2023-05-10T08:07:50.025Z,35.68
2023-05-10T08:08:47.130Z,62.40
2023-05-10T08:09:47.586Z,83.03
2023-05-10T08:10:46.983Z,94.40
2023-05-10T08:11:46.755Z,86.72
2023-05-10T08:12:46.628Z,82.48
2023-05-10T08:13:46.525Z,88.25
2023-05-10T08:14:46.396Z,103.10
2023-05-10T08:15:46.297Z,116.21
2023-05-10T08:16:46.150Z,131.33
2023-05-10T08:17:46.033Z,143.53
2023-05-10T08:18:46.001Z,146.43
2023-05-10T08:19:45.776Z,146.18
2023-05-10T08:20:46.667Z,146.39
2023-05-10T08:21:45.559Z,139.63
2023-05-10T08:22:45.498Z,132.12
2023-05-10T08:23:45.352Z,118.44
2023-05-10T08:24:45.142Z,100.77
2023-05-10T08:25:45.101Z,95.66
2023-05-10T08:26:44.904Z,83.68
2023-05-10T08:27:44.954Z,47.59
2023-05-10T08:28:44.803Z,18.53
2023-05-10T08:29:50.182Z,18.64
2023-05-10T08:30:45.549Z,8.67
2023-05-10T08:31:44.600Z,0.00
2023-05-10T08:32:44.358Z,0.00
2023-05-10T08:33:44.885Z,0.00
2023-05-10T08:34:44.114Z,0.00
2023-05-10T08:35:43.948Z,0.00
2023-05-10T08:36:43.832Z,29.20
2023-05-10T08:37:43.708Z,35.45
2023-05-10T08:38:44.599Z,35.97
2023-05-10T08:39:44.462Z,36.72
2023-05-10T08:40:43.343Z,45.87
2023-05-10T08:41:43.281Z,67.09
2023-05-10T08:42:43.092Z,102.64
2023-05-10T08:43:42.980Z,175.63
2023-05-10T08:44:49.435Z,205.09
2023-05-10T08:45:42.776Z,205.57
2023-05-10T08:46:42.688Z,208.06
2023-05-10T08:47:42.606Z,206.05
2023-05-10T08:48:43.390Z,206.40
2023-05-10T08:49:42.293Z,211.43
2023-05-10T08:50:50.080Z,221.95
2023-05-10T08:51:43.811Z,206.86
2023-05-10T08:52:41.979Z,211.31
2023-05-10T08:53:41.831Z,216.47
2023-05-10T08:54:41.699Z,223.73
2023-05-10T08:55:42.106Z,206.35
2023-05-10T08:56:43.030Z,212.59
2023-05-10T08:57:41.420Z,226.33
2023-05-10T08:58:41.235Z,243.64
2023-05-10T08:59:41.127Z,270.50
2023-05-10T09:00:42.012Z,248.92
2023-05-10T09:01:41.062Z,243.87
2023-05-10T09:02:43.572Z,233.51
2023-05-10T09:03:40.711Z,206.02
2023-05-10T09:04:40.582Z,194.65
2023-05-10T09:05:40.401Z,184.25
2023-05-10T09:06:40.287Z,186.04
2023-05-10T09:07:41.148Z,186.58
2023-05-10T09:08:40.046Z,187.74
2023-05-10T09:09:39.908Z,186.52
2023-05-10T09:10:39.789Z,188.81
2023-05-10T09:11:40.501Z,195.17
2023-05-10T09:12:40.746Z,205.56
2023-05-10T09:13:39.405Z,224.62
2023-05-10T09:14:39.437Z,237.14
2023-05-10T09:15:39.182Z,240.42
2023-05-10T09:16:39.088Z,244.39
2023-05-10T09:17:38.968Z,250.00
2023-05-10T09:18:38.933Z,250.00
2023-05-10T09:19:40.512Z,250.00
2023-05-10T09:20:38.683Z,250.00
2023-05-10T09:21:38.605Z,250.37
2023-05-10T09:22:39.508Z,250.00
2023-05-10T09:23:38.485Z,247.33
2023-05-10T09:24:38.416Z,244.72
2023-05-10T09:25:38.515Z,235.11
2023-05-10T09:26:38.311Z,230.59
2023-05-10T09:27:38.220Z,221.33
2023-05-10T09:28:38.150Z,214.35
2023-05-10T09:29:38.171Z,214.79
2023-05-10T09:30:39.196Z,221.56
2023-05-10T09:31:39.731Z,232.56
2023-05-10T09:32:37.942Z,236.07
2023-05-10T09:33:38.577Z,248.83
2023-05-10T09:34:38.443Z,247.80
2023-05-10T09:35:42.672Z,248.21
2023-05-10T09:36:38.592Z,248.32
2023-05-10T09:37:37.539Z,249.01
2023-05-10T09:38:37.362Z,250.43
2023-05-10T09:39:38.188Z,248.65
2023-05-10T09:40:38.002Z,250.32
2023-05-10T09:41:36.930Z,254.16
2023-05-10T09:42:39.540Z,261.16
2023-05-10T09:43:37.670Z,249.08
2023-05-10T09:44:37.470Z,252.56
2023-05-10T09:45:38.511Z,258.65
2023-05-10T09:46:36.517Z,269.33
2023-05-10T09:47:36.434Z,284.81
2023-05-10T09:48:36.358Z,264.59
2023-05-10T09:49:36.250Z,230.17
2023-05-10T09:50:36.201Z,197.87
2023-05-10T09:51:36.916Z,179.22
2023-05-10T09:52:41.095Z,176.01
2023-05-10T09:53:35.951Z,176.38
2023-05-10T09:54:35.822Z,178.79
2023-05-10T09:55:35.728Z,186.39
2023-05-10T09:56:35.573Z,201.78
2023-05-10T09:57:35.467Z,222.09
2023-05-10T09:58:36.004Z,228.01
2023-05-10T09:59:35.177Z,233.13
2023-05-10T10:00:35.075Z,239.98
2023-05-10T10:01:35.037Z,243.87
2023-05-10T10:02:35.015Z,250.00
2023-05-10T10:03:34.869Z,249.51
2023-05-10T10:04:34.845Z,250.66
2023-05-10T10:05:34.773Z,250.00
2023-05-10T10:06:34.668Z,250.00
2023-05-10T10:07:34.596Z,250.00
2023-05-10T10:08:34.547Z,249.20
2023-05-10T10:09:34.469Z,250.06
2023-05-10T10:10:34.449Z,249.01
2023-05-10T10:11:34.349Z,250.00
2023-05-10T10:12:34.287Z,249.29
2023-05-10T10:13:34.223Z,245.30
2023-05-10T10:14:34.159Z,247.85
2023-05-10T10:15:34.548Z,249.33
2023-05-10T10:16:34.047Z,249.16
2023-05-10T10:17:33.972Z,247.60
2023-05-10T10:18:34.011Z,247.77
2023-05-10T10:19:33.801Z,250.00
2023-05-10T10:20:33.750Z,248.45
2023-05-10T10:21:33.675Z,248.45
2023-05-10T10:22:33.598Z,249.27
2023-05-10T10:23:33.541Z,249.14
2023-05-10T10:24:33.493Z,249.04
2023-05-10T10:25:33.409Z,249.25
2023-05-10T10:26:33.327Z,248.80
2023-05-10T10:27:33.252Z,249.05
2023-05-10T10:28:33.183Z,249.63
2023-05-10T10:29:33.105Z,249.45
2023-05-10T10:30:33.051Z,249.66
2023-05-10T10:31:33.008Z,249.44
2023-05-10T10:32:32.932Z,250.00
2023-05-10T10:33:32.846Z,249.08
2023-05-10T10:34:32.757Z,244.19
2023-05-10T10:35:32.725Z,242.61
2023-05-10T10:36:32.637Z,244.57
2023-05-10T10:37:32.535Z,246.44
2023-05-10T10:38:32.466Z,247.47
2023-05-10T10:39:32.392Z,248.02
2023-05-10T10:40:34.636Z,249.57
2023-05-10T10:41:32.205Z,249.92
2023-05-10T10:42:33.070Z,250.09
2023-05-10T10:43:31.954Z,250.58
2023-05-10T10:44:31.868Z,251.08
2023-05-10T10:45:31.703Z,252.48
2023-05-10T10:46:31.645Z,254.15
2023-05-10T10:47:31.493Z,248.79
2023-05-10T10:48:31.365Z,248.86
2023-05-10T10:49:31.210Z,249.66
2023-05-10T10:50:31.103Z,249.00
2023-05-10T10:51:30.989Z,249.46
2023-05-10T10:52:30.929Z,248.78
2023-05-10T10:53:30.737Z,250.00
2023-05-10T10:54:30.629Z,250.00
2023-05-10T10:55:30.526Z,247.77
2023-05-10T10:56:30.458Z,245.82
2023-05-10T10:57:30.385Z,247.22
2023-05-10T10:58:30.301Z,249.58
2023-05-10T10:59:30.241Z,248.30
2023-05-10T11:00:30.214Z,245.00
2023-05-10T11:01:30.289Z,245.83
2023-05-10T11:02:31.359Z,247.55
2023-05-10T11:03:30.043Z,248.38
2023-05-10T11:04:30.008Z,247.55
2023-05-10T11:05:29.914Z,247.76
2023-05-10T11:06:29.830Z,245.54
2023-05-10T11:07:29.786Z,245.45
2023-05-10T11:08:29.748Z,248.24
2023-05-10T11:09:29.606Z,248.06
2023-05-10T11:10:29.548Z,249.20
2023-05-10T11:11:29.475Z,249.61
2023-05-10T11:12:29.385Z,248.88
2023-05-10T11:13:29.314Z,250.00
2023-05-10T11:14:29.245Z,249.74
2023-05-10T11:15:29.187Z,249.66
2023-05-10T11:16:29.149Z,249.84
2023-05-10T11:17:29.114Z,249.81
2023-05-10T11:18:28.968Z,248.85
2023-05-10T11:19:28.853Z,249.19
2023-05-10T11:20:28.797Z,249.81
2023-05-10T11:21:28.873Z,249.47
2023-05-10T11:22:28.643Z,248.98
2023-05-10T11:23:28.561Z,248.96
2023-05-10T11:24:28.489Z,247.88
2023-05-10T11:25:28.417Z,248.71
2023-05-10T11:26:28.332Z,248.63
2023-05-10T11:27:28.260Z,249.11
2023-05-10T11:28:28.195Z,250.11
2023-05-10T11:29:28.127Z,249.31
2023-05-10T11:30:28.041Z,249.95
2023-05-10T11:31:28.086Z,249.10
2023-05-10T11:32:27.914Z,248.51
2023-05-10T11:33:27.816Z,248.91
2023-05-10T11:34:27.731Z,245.41
2023-05-10T11:35:27.666Z,241.71
2023-05-10T11:36:27.601Z,238.26
2023-05-10T11:37:27.511Z,233.98
2023-05-10T11:38:27.458Z,225.04
2023-05-10T11:39:27.376Z,223.62
2023-05-10T11:40:27.293Z,225.28
2023-05-10T11:41:27.227Z,222.47
2023-05-10T11:42:27.144Z,217.74
2023-05-10T11:43:27.083Z,218.72
2023-05-10T11:44:27.009Z,215.38
2023-05-10T11:45:26.924Z,215.74
2023-05-10T11:46:26.914Z,214.63
2023-05-10T11:47:26.820Z,213.15
2023-05-10T11:48:26.715Z,211.04
2023-05-10T11:49:26.643Z,209.11
2023-05-10T11:50:26.559Z,207.83
2023-05-10T11:51:26.508Z,209.48
2023-05-10T11:52:27.015Z,210.70
2023-05-10T11:53:26.356Z,212.62
2023-05-10T11:54:26.264Z,212.61
2023-05-10T11:55:26.192Z,212.33
2023-05-10T11:56:26.124Z,211.50
2023-05-10T11:57:26.052Z,212.90
2023-05-10T11:58:25.966Z,212.56
2023-05-10T11:59:25.890Z,213.54
2023-05-10T12:00:25.820Z,215.01
2023-05-10T12:01:25.746Z,216.64
2023-05-10T12:02:25.760Z,218.27
2023-05-10T12:03:25.754Z,219.91
2023-05-10T12:04:25.544Z,222.65
2023-05-10T12:05:25.434Z,222.89
2023-05-10T12:06:25.368Z,223.62
2023-05-10T12:07:25.292Z,224.51
2023-05-10T12:08:25.226Z,224.67
2023-05-10T12:09:39.434Z,224.25
2023-05-10T12:10:26.042Z,224.33
2023-05-10T12:11:24.894Z,224.44
2023-05-10T12:12:24.775Z,225.13
2023-05-10T12:13:24.668Z,226.19
2023-05-10T12:14:24.542Z,226.21
2023-05-10T12:15:24.489Z,225.86
2023-05-10T12:16:24.381Z,226.44
2023-05-10T12:17:24.200Z,226.02
2023-05-10T12:18:24.078Z,237.02
2023-05-10T12:19:23.932Z,237.88
2023-05-10T12:20:23.832Z,237.10
2023-05-10T12:21:23.702Z,239.02
2023-05-10T12:22:23.597Z,241.87
2023-05-10T12:23:23.458Z,242.25
2023-05-10T12:24:23.365Z,243.37
2023-05-10T12:25:23.307Z,243.31
2023-05-10T12:26:23.200Z,245.38
2023-05-10T12:27:23.105Z,245.82
2023-05-10T12:28:23.024Z,246.02
2023-05-10T12:29:22.933Z,246.24
2023-05-10T12:30:22.854Z,247.44
2023-05-10T12:31:22.866Z,248.56
2023-05-10T12:32:22.700Z,247.86
2023-05-10T12:33:22.701Z,249.62
2023-05-10T12:34:22.533Z,249.46
2023-05-10T12:35:22.446Z,248.45
2023-05-10T12:36:22.371Z,249.13
2023-05-10T12:37:22.286Z,248.96
2023-05-10T12:38:22.204Z,249.40
2023-05-10T12:39:22.126Z,248.92
2023-05-10T12:40:22.047Z,250.00
2023-05-10T12:41:22.151Z,249.71
2023-05-10T12:42:21.886Z,249.97
2023-05-10T12:43:21.818Z,249.82
2023-05-10T12:44:21.764Z,250.00
2023-05-10T12:45:21.653Z,250.00
2023-05-10T12:46:21.597Z,249.34
2023-05-10T12:47:21.505Z,250.00
2023-05-10T12:48:21.435Z,249.59
2023-05-10T12:49:21.360Z,248.59
2023-05-10T12:50:21.266Z,246.89
2023-05-10T12:51:21.261Z,247.57
2023-05-10T12:52:21.120Z,247.98
2023-05-10T12:53:21.038Z,249.00
2023-05-10T12:54:20.974Z,248.56
2023-05-10T12:55:20.879Z,249.17
2023-05-10T12:56:20.787Z,249.54
2023-05-10T12:57:20.707Z,249.40
2023-05-10T12:58:34.313Z,249.95
2023-05-10T12:59:21.499Z,250.05
2023-05-10T13:00:20.378Z,250.05
2023-05-10T13:01:20.302Z,250.47
2023-05-10T13:02:20.154Z,251.42
2023-05-10T13:03:20.027Z,251.97
2023-05-10T13:04:19.933Z,249.03
2023-05-10T13:05:19.783Z,248.30
2023-05-10T13:06:19.651Z,249.09
2023-05-10T13:07:19.539Z,249.59
2023-05-10T13:08:19.409Z,248.39
2023-05-10T13:09:19.291Z,248.25
2023-05-10T13:10:19.496Z,248.65
2023-05-10T13:11:19.059Z,247.88
2023-05-10T13:12:18.927Z,248.47
2023-05-10T13:13:18.813Z,248.49
2023-05-10T13:14:18.686Z,248.28
2023-05-10T13:15:18.578Z,247.75
2023-05-10T13:16:18.556Z,247.80
2023-05-10T13:17:18.543Z,248.43
2023-05-10T13:18:18.413Z,248.07
2023-05-10T13:19:18.365Z,247.60
2023-05-10T13:20:18.408Z,247.30
2023-05-10T13:21:18.106Z,248.13
2023-05-10T13:22:25.606Z,248.47
2023-05-10T13:23:18.906Z,248.53
2023-05-10T13:24:17.765Z,248.06
2023-05-10T13:25:17.658Z,247.17
2023-05-10T13:26:17.518Z,247.37
2023-05-10T13:27:17.401Z,245.84
2023-05-10T13:28:17.291Z,245.16
2023-05-10T13:29:18.014Z,244.02
2023-05-10T13:30:18.271Z,243.64
2023-05-10T13:31:17.004Z,242.92
2023-05-10T13:32:16.783Z,242.69
2023-05-10T13:33:16.663Z,242.88
2023-05-10T13:34:16.548Z,243.44
2023-05-10T13:35:16.462Z,242.07
2023-05-10T13:36:16.290Z,240.67
2023-05-10T13:37:16.170Z,241.08
2023-05-10T13:38:16.061Z,239.90
2023-05-10T13:39:16.012Z,239.47
2023-05-10T13:40:16.046Z,238.23
2023-05-10T13:41:15.825Z,237.89
2023-05-10T13:42:15.746Z,237.93
2023-05-10T13:43:15.659Z,237.08
2023-05-10T13:44:15.598Z,235.64
2023-05-10T13:45:15.885Z,236.77
2023-05-10T13:46:15.460Z,236.15
2023-05-10T13:47:15.336Z,236.26
2023-05-10T13:48:15.257Z,236.42
2023-05-10T13:49:15.191Z,235.61
2023-05-10T13:50:15.116Z,234.27
2023-05-10T13:51:15.046Z,233.85
2023-05-10T13:52:14.957Z,234.17
2023-05-10T13:53:14.883Z,233.17
2023-05-10T13:54:14.882Z,233.86
2023-05-10T13:55:14.725Z,234.99
2023-05-10T13:56:14.645Z,232.54
2023-05-10T13:57:14.571Z,234.59
2023-05-10T13:58:14.474Z,233.19
2023-05-10T13:59:14.395Z,232.62
2023-05-10T14:00:14.315Z,232.92
2023-05-10T14:01:14.323Z,232.08
2023-05-10T14:02:14.221Z,233.52
2023-05-10T14:03:14.111Z,231.88
2023-05-10T14:04:14.010Z,230.87
2023-05-10T14:05:14.136Z,231.37
2023-05-10T14:06:13.853Z,231.74
2023-05-10T14:07:13.777Z,231.27
2023-05-10T14:08:13.715Z,231.97
2023-05-10T14:09:13.621Z,230.87
2023-05-10T14:10:13.548Z,230.79
2023-05-10T14:11:13.466Z,231.13
2023-05-10T14:12:13.392Z,231.30
2023-05-10T14:13:13.393Z,230.75
2023-05-10T14:14:13.252Z,228.86
2023-05-10T14:15:13.159Z,225.37
2023-05-10T14:16:13.104Z,220.87
2023-05-10T14:17:13.095Z,215.74
2023-05-10T14:18:12.924Z,208.36
2023-05-10T14:19:12.854Z,204.90
2023-05-10T14:20:12.789Z,199.54
2023-05-10T14:21:12.713Z,195.39
2023-05-10T14:22:12.648Z,193.22
2023-05-10T14:23:12.606Z,190.19
2023-05-10T14:24:12.507Z,187.17
2023-05-10T14:25:12.429Z,186.15
2023-05-10T14:26:12.347Z,186.49
2023-05-10T14:27:12.278Z,184.84
2023-05-10T14:28:12.252Z,182.05
2023-05-10T14:29:12.757Z,175.03
2023-05-10T14:30:12.077Z,173.42
2023-05-10T14:31:11.997Z,172.71
2023-05-10T14:32:11.968Z,172.40
2023-05-10T14:33:11.873Z,165.59
2023-05-10T14:34:11.770Z,162.02
2023-05-10T14:35:13.988Z,160.42
2023-05-10T14:36:11.568Z,164.20
2023-05-10T14:37:11.458Z,161.35
2023-05-10T14:38:11.333Z,157.73
2023-05-10T14:39:11.206Z,159.52
2023-05-10T14:40:11.071Z,157.09
2023-05-10T14:41:11.970Z,151.86
2023-05-10T14:42:10.829Z,149.89
2023-05-10T14:43:10.672Z,146.56
2023-05-10T14:44:10.555Z,149.04
2023-05-10T14:45:10.416Z,145.78
2023-05-10T14:46:10.332Z,141.04
2023-05-10T14:47:12.057Z,138.09
2023-05-10T14:48:10.025Z,137.66
2023-05-10T14:49:09.898Z,136.10
2023-05-10T14:50:09.775Z,134.44
2023-05-10T14:51:09.666Z,129.57
2023-05-10T14:52:09.593Z,129.22
2023-05-10T14:53:09.525Z,126.77
2023-05-10T14:54:09.465Z,123.57
2023-05-10T14:55:09.391Z,119.80
2023-05-10T14:56:09.326Z,119.52
2023-05-10T14:57:09.258Z,120.98
2023-05-10T14:58:09.182Z,122.95
2023-05-10T14:59:09.119Z,119.62
2023-05-10T15:00:09.048Z,116.24
2023-05-10T15:01:09.001Z,117.65
2023-05-10T15:02:08.924Z,121.32
2023-05-10T15:03:08.909Z,122.24
2023-05-10T15:04:08.767Z,118.61
2023-05-10T15:05:08.693Z,121.71
2023-05-10T15:06:08.630Z,124.88
2023-05-10T15:07:08.562Z,126.78
2023-05-10T15:08:08.506Z,129.97
2023-05-10T15:09:08.443Z,131.69
2023-05-10T15:10:08.393Z,135.38
2023-05-10T15:11:08.334Z,137.00
2023-05-10T15:12:08.280Z,135.92
2023-05-10T15:13:08.192Z,136.73
2023-05-10T15:14:08.133Z,138.99
2023-05-10T15:15:08.059Z,139.75
2023-05-10T15:16:08.036Z,143.29
2023-05-10T15:17:07.945Z,143.66
2023-05-10T15:18:07.956Z,147.54
2023-05-10T15:19:07.957Z,152.58
2023-05-10T15:20:07.756Z,156.76
2023-05-10T15:21:07.701Z,160.79
2023-05-10T15:22:07.652Z,159.60
2023-05-10T15:23:07.587Z,163.54
2023-05-10T15:24:07.511Z,166.49
2023-05-10T15:25:07.452Z,168.71
2023-05-10T15:26:07.431Z,171.24
2023-05-10T15:27:07.314Z,172.42
2023-05-10T15:28:07.259Z,176.81
2023-05-10T15:29:07.191Z,177.24
2023-05-10T15:30:07.134Z,176.47
2023-05-10T15:31:07.095Z,177.13
2023-05-10T15:32:07.010Z,174.34
2023-05-10T15:33:07.032Z,177.99
2023-05-10T15:34:06.875Z,177.26
2023-05-10T15:35:06.815Z,176.82
2023-05-10T15:36:06.748Z,180.11
2023-05-10T15:37:06.678Z,179.96
2023-05-10T15:38:06.619Z,181.84
2023-05-10T15:39:06.551Z,182.86
2023-05-10T15:40:06.516Z,183.17
2023-05-10T15:41:06.412Z,184.53
2023-05-10T15:42:06.359Z,186.95
2023-05-10T15:43:06.300Z,187.17
2023-05-10T15:44:06.232Z,188.82
2023-05-10T15:45:06.167Z,190.50
2023-05-10T15:46:06.116Z,192.71
2023-05-10T15:47:06.128Z,194.92
2023-05-10T15:48:06.075Z,196.96
2023-05-10T15:49:05.917Z,197.86
2023-05-10T15:50:05.844Z,197.77
2023-05-10T15:51:05.782Z,202.30
2023-05-10T15:52:05.711Z,201.79
2023-05-10T15:53:05.673Z,204.42
2023-05-10T15:54:07.508Z,203.02
2023-05-10T15:55:05.633Z,206.24
2023-05-10T15:56:05.568Z,210.33
2023-05-10T15:57:05.514Z,211.23
2023-05-10T15:58:05.433Z,210.24
2023-05-10T15:59:05.360Z,212.38
2023-05-10T16:00:05.288Z,213.34
2023-05-10T16:01:05.313Z,214.68
2023-05-10T16:02:05.180Z,213.85
2023-05-10T16:03:05.220Z,215.04
2023-05-10T16:04:05.012Z,214.57
2023-05-10T16:05:04.964Z,215.18
2023-05-10T16:06:04.874Z,216.07
2023-05-10T16:07:04.832Z,217.14
2023-05-10T16:08:04.736Z,218.23
2023-05-10T16:09:04.674Z,217.30
2023-05-10T16:10:04.580Z,218.03
2023-05-10T16:11:04.527Z,219.47
2023-05-10T16:12:04.441Z,219.56
2023-05-10T16:13:04.377Z,219.50
2023-05-10T16:14:05.672Z,221.10
2023-05-10T16:15:04.163Z,220.73
2023-05-10T16:16:04.084Z,222.08
2023-05-10T16:17:03.972Z,221.29
2023-05-10T16:18:03.884Z,221.00
2023-05-10T16:19:03.716Z,222.50
2023-05-10T16:20:03.597Z,222.70
2023-05-10T16:21:03.399Z,223.48
2023-05-10T16:22:03.264Z,223.43
2023-05-10T16:23:03.142Z,224.06
2023-05-10T16:24:03.022Z,222.07
2023-05-10T16:25:02.882Z,223.59
2023-05-10T16:26:02.771Z,223.45
2023-05-10T16:27:02.630Z,225.53
2023-05-10T16:28:02.516Z,223.55
2023-05-10T16:29:02.389Z,222.41
2023-05-10T16:30:02.320Z,224.33
2023-05-10T16:31:02.176Z,226.07
2023-05-10T16:32:02.002Z,224.32
2023-05-10T16:33:01.921Z,224.15
2023-05-10T16:34:01.749Z,223.61
2023-05-10T16:35:01.679Z,223.80
2023-05-10T16:36:01.487Z,223.40
2023-05-10T16:37:01.374Z,226.04
2023-05-10T16:38:01.275Z,225.36
2023-05-10T16:39:01.124Z,225.55
2023-05-10T16:40:00.996Z,224.95
2023-05-10T16:41:00.855Z,223.96
2023-05-10T16:42:00.735Z,225.72
2023-05-10T16:43:00.609Z,224.11
2023-05-10T16:44:00.473Z,225.01
2023-05-10T16:45:00.342Z,225.93
2023-05-10T16:46:00.295Z,226.78
2023-05-10T16:47:00.143Z,226.18
2023-05-10T16:48:00.056Z,225.23
2023-05-10T16:48:59.826Z,227.17
2023-05-10T16:49:59.740Z,225.50
2023-05-10T16:50:59.582Z,226.41
2023-05-10T16:51:59.448Z,225.53
2023-05-10T16:52:59.570Z,226.02
2023-05-10T16:53:59.199Z,225.29
2023-05-10T16:54:59.124Z,225.79
2023-05-10T16:55:59.070Z,225.12
2023-05-10T16:56:59.013Z,225.45
2023-05-10T16:57:58.959Z,225.75
2023-05-10T16:58:58.875Z,226.09
2023-05-10T16:59:58.811Z,226.62
2023-05-10T17:00:58.747Z,227.75
2023-05-10T17:01:58.764Z,226.38
2023-05-10T17:02:58.710Z,226.77
2023-05-10T17:03:58.715Z,227.05
2023-05-10T17:04:58.479Z,226.04
2023-05-10T17:05:58.652Z,226.25
2023-05-10T17:06:58.363Z,227.88
2023-05-10T17:07:58.282Z,226.07
2023-05-10T17:08:58.222Z,226.29
2023-05-10T17:09:58.148Z,225.92
2023-05-10T17:10:58.073Z,225.56
2023-05-10T17:11:58.024Z,226.83
2023-05-10T17:12:58.160Z,226.68
2023-05-10T17:13:57.877Z,226.35
2023-05-10T17:14:57.813Z,225.77
2023-05-10T17:15:57.912Z,225.92
2023-05-10T17:16:57.733Z,226.35
2023-05-10T17:17:57.670Z,226.18
2023-05-10T17:18:57.653Z,225.93
2023-05-10T17:19:57.494Z,226.69
2023-05-10T17:20:57.429Z,226.55
2023-05-10T17:21:57.359Z,224.84
2023-05-10T17:22:57.533Z,226.70
2023-05-10T17:23:57.230Z,226.21
2023-05-10T17:24:57.200Z,227.01
2023-05-10T17:25:58.070Z,226.48
2023-05-10T17:26:57.060Z,227.74
2023-05-10T17:27:56.985Z,225.69
2023-05-10T17:28:56.906Z,225.95
2023-05-10T17:29:56.836Z,226.41
2023-05-10T17:30:56.777Z,227.42
2023-05-10T17:31:56.804Z,225.19
2023-05-10T17:32:56.697Z,225.70
2023-05-10T17:33:56.575Z,226.00
2023-05-10T17:34:56.518Z,225.52
2023-05-10T17:35:56.437Z,225.35
2023-05-10T17:36:56.370Z,225.90
2023-05-10T17:37:56.311Z,225.90
2023-05-10T17:38:56.235Z,226.79
2023-05-10T17:39:56.173Z,225.93
2023-05-10T17:40:56.094Z,224.78
2023-05-10T17:41:56.034Z,225.76
2023-05-10T17:42:56.054Z,225.73
2023-05-10T17:43:55.906Z,226.31
2023-05-10T17:44:55.836Z,225.79
2023-05-10T17:45:55.828Z,224.52
2023-05-10T17:46:55.702Z,225.53
2023-05-10T17:47:55.693Z,225.27
2023-05-10T17:48:55.575Z,224.95
2023-05-10T17:49:55.500Z,225.03
2023-05-10T17:50:55.435Z,225.47
2023-05-10T17:51:55.379Z,224.10
2023-05-10T17:52:55.307Z,223.87
2023-05-10T17:53:55.242Z,225.66
2023-05-10T17:54:55.197Z,224.05
2023-05-10T17:55:55.122Z,225.22
2023-05-10T17:56:55.044Z,223.93
2023-05-10T17:57:55.016Z,224.77
2023-05-10T17:58:54.947Z,225.07
2023-05-10T17:59:54.875Z,225.30
2023-05-10T18:00:54.844Z,225.03
2023-05-10T18:01:54.741Z,223.52
2023-05-10T18:02:54.729Z,224.71
2023-05-10T18:03:54.614Z,223.52